Time;durP1;ratioP1;P1;durP2;ratioP2;P2;SDS_P1;SDS_P2;PMS_P1;PMS_P2;Temp;Humidity;BMP_temperature;BMP_pressure;BME280_temperature;BME280_humidity;BME280_pressure;Samples;Min_cycle;Max_cycle;Signal;HPM_P1;HPM_P2
2023/03/11 00:00:18;;;;;;;2.13;1.80;;;;;;;5.37;90.82;95617.97;5071019;28;20626;-58
2023/03/11 00:02:47;;;;;;;1.50;1.40;;;;;;;5.36;91.76;95610.22;5072258;28;20210;-58
2023/03/11 00:05:15;;;;;;;1.73;1.63;;;;;;;5.39;90.27;95630.94;5075188;28;20226;-58
2023/03/11 00:07:41;;;;;;;2.20;2.07;;;;;;;5.37;91.03;95631.06;5076857;28;20635;-58
2023/03/11 00:10:10;;;;;;;1.97;1.73;;;;;;;5.42;90.88;95635.91;5077562;28;20218;-58
2023/03/11 00:12:37;;;;;;;1.87;1.77;;;;;;;5.33;91.35;95628.84;5077820;28;20214;-59
2023/03/11 00:15:04;;;;;;;2.43;2.23;;;;;;;5.37;89.97;95646.81;5094831;28;20227;-57
2023/03/11 00:17:30;;;;;;;1.90;1.80;;;;;;;5.32;90.06;95642.91;5097825;28;20193;-58
2023/03/11 00:19:58;;;;;;;1.77;1.67;;;;;;;5.38;89.85;95639.78;5096495;28;20190;-58
2023/03/11 00:22:24;;;;;;;2.07;1.97;;;;;;;5.29;91.39;95653.69;5096829;28;20170;-58
2023/03/11 00:24:52;;;;;;;2.50;2.30;;;;;;;5.32;91.42;95645.53;5090294;28;20219;-59
2023/03/11 00:27:19;;;;;;;2.30;1.53;;;;;;;5.33;89.85;95641.97;5071467;28;20205;-58
2023/03/11 00:29:45;;;;;;;1.63;1.53;;;;;;;5.25;90.28;95652.28;5071793;28;20217;-58
2023/03/11 00:32:12;;;;;;;2.60;1.80;;;;;;;5.23;91.60;95659.47;5071461;28;20210;-59
2023/03/11 00:34:38;;;;;;;2.30;2.10;;;;;;;5.23;91.57;95648.97;5071409;28;20206;-58
2023/03/11 00:37:06;;;;;;;2.03;1.93;;;;;;;5.25;95.82;95641.78;5070937;28;20198;-58
2023/03/11 00:39:32;;;;;;;2.17;2.03;;;;;;;5.26;90.49;95639.06;5071950;28;20542;-58
2023/03/11 00:41:59;;;;;;;2.50;1.90;;;;;;;5.25;91.28;95647.03;5070597;28;20217;-59
2023/03/11 00:44:25;;;;;;;1.80;1.70;;;;;;;5.22;92.85;95642.91;5070509;28;20210;-59
2023/03/11 00:46:52;;;;;;;1.90;1.80;;;;;;;5.18;93.90;95653.78;5071150;28;20218;-58
2023/03/11 00:49:18;;;;;;;2.23;2.10;;;;;;;5.17;93.92;95652.16;5071426;28;20233;-58
2023/03/11 00:51:45;;;;;;;2.53;2.00;;;;;;;5.20;94.48;95660.56;5070688;28;20294;-59
2023/03/11 00:54:12;;;;;;;1.80;1.73;;;;;;;5.14;93.17;95644.53;5071013;28;20206;-58
2023/03/11 00:56:40;;;;;;;2.83;2.20;;;;;;;5.07;93.72;95638.16;5073106;28;20207;-58
2023/03/11 00:59:06;;;;;;;1.90;1.80;;;;;;;5.07;94.73;95649.47;5075163;28;20213;-58
2023/03/11 01:01:33;;;;;;;2.13;2.03;;;;;;;5.11;94.04;95650.03;5073247;28;20206;-59
2023/03/11 01:03:59;;;;;;;2.30;2.20;;;;;;;5.07;94.65;95644.25;5074551;28;20205;-60
2023/03/11 01:06:26;;;;;;;2.33;2.23;;;;;;;5.05;97.68;95640.94;5073927;28;20694;-58
2023/03/11 01:08:52;;;;;;;2.50;2.20;;;;;;;5.06;96.42;95647.00;5074518;28;20662;-59
2023/03/11 01:11:20;;;;;;;2.03;1.93;;;;;;;5.07;95.61;95648.66;5073924;28;20206;-58
2023/03/11 01:13:47;;;;;;;1.90;1.80;;;;;;;5.01;98.97;95632.53;5074395;28;20199;-58
2023/03/11 01:16:13;;;;;;;2.10;2.00;;;;;;;4.99;98.50;95641.47;5074506;28;20206;-58
2023/03/11 01:18:40;;;;;;;2.20;2.10;;;;;;;5.05;97.75;95646.19;5074371;28;20218;-58
2023/03/11 01:21:06;;;;;;;2.20;2.10;;;;;;;4.99;97.94;95654.59;5073753;28;20224;-58
2023/03/11 01:23:33;;;;;;;2.37;2.27;;;;;;;4.93;98.95;95648.06;5074220;28;20198;-59
2023/03/11 01:26:01;;;;;;;2.50;2.30;;;;;;;4.95;100.00;95651.41;5074398;28;20226;-58
2023/03/11 01:28:28;;;;;;;2.40;2.20;;;;;;;4.98;99.74;95648.50;5074389;28;20536;-58
2023/03/11 01:30:55;;;;;;;2.47;2.37;;;;;;;4.92;100.00;95650.84;5072833;28;20213;-58
2023/03/11 01:33:21;;;;;;;2.70;2.60;;;;;;;4.92;98.66;95641.16;5073881;28;20199;-59
2023/03/11 01:35:48;;;;;;;2.70;2.50;;;;;;;4.86;99.01;95635.63;5070854;28;20453;-60
2023/03/11 01:38:16;;;;;;;2.70;2.60;;;;;;;4.88;96.99;95644.19;5074307;28;20301;-59
2023/03/11 01:40:44;;;;;;;3.10;2.90;;;;;;;4.85;98.19;95653.13;5073805;28;20210;-58
2023/03/11 01:43:49;;;;;;;2.90;2.70;;;;;;;4.71;99.69;95665.78;5074153;28;20275;-58
2023/03/11 01:46:19;;;;;;;3.10;2.70;;;;;;;4.62;100.00;95651.66;5058607;28;20230;-58
2023/03/11 01:48:48;;;;;;;2.83;2.73;;;;;;;4.49;100.00;95635.34;5073880;28;20295;-58
2023/03/11 01:51:15;;;;;;;2.60;2.40;;;;;;;4.50;100.00;95639.63;5073674;28;20195;-59
2023/03/11 01:53:42;;;;;;;3.10;2.90;;;;;;;4.56;100.00;95622.56;5071972;28;20635;-58
2023/03/11 01:56:09;;;;;;;2.70;2.50;;;;;;;4.49;100.00;95632.75;5073544;28;20469;-58
2023/03/11 01:58:39;;;;;;;2.60;2.50;;;;;;;4.40;100.00;95649.22;5072958;28;20198;-58
2023/03/11 02:01:05;;;;;;;2.93;2.73;;;;;;;4.29;100.00;95642.25;5073450;28;20194;-58
2023/03/11 02:03:36;;;;;;;3.17;2.77;;;;;;;4.28;100.00;95634.56;5073878;28;20217;-58
2023/03/11 02:06:06;;;;;;;3.17;2.87;;;;;;;4.29;100.00;95636.19;5073317;28;20213;-58
2023/03/11 02:08:33;;;;;;;3.33;3.03;;;;;;;4.21;100.00;95639.50;5072884;28;20197;-58
2023/03/11 02:11:02;;;;;;;3.33;3.13;;;;;;;4.24;100.00;95628.75;5073211;28;20202;-57
2023/03/11 02:13:30;;;;;;;3.30;3.10;;;;;;;4.23;100.00;95621.84;5077913;28;20562;-58
2023/03/11 02:15:56;;;;;;;3.17;2.97;;;;;;;4.16;100.00;95622.50;5080856;28;20235;-58
2023/03/11 02:18:23;;;;;;;3.30;3.03;;;;;;;4.11;100.00;95622.88;5084137;28;20203;-58
2023/03/11 02:20:54;;;;;;;3.10;2.90;;;;;;;4.01;100.00;95630.69;5087356;28;20206;-59
2023/03/11 02:23:24;;;;;;;3.60;3.30;;;;;;;3.98;100.00;95612.63;5076939;28;20214;-59
2023/03/11 02:25:53;;;;;;;3.10;2.90;;;;;;;3.96;100.00;95618.94;5076661;28;20241;-59
2023/03/11 02:28:22;;;;;;;3.00;2.80;;;;;;;3.95;100.00;95627.75;5078157;28;20217;-58
2023/03/11 02:30:48;;;;;;;3.20;3.00;;;;;;;4.01;100.00;95622.00;5075456;28;20199;-58
2023/03/11 02:33:15;;;;;;;3.00;2.80;;;;;;;4.01;100.00;95629.84;5076387;28;20210;-58
2023/03/11 02:35:42;;;;;;;3.20;3.00;;;;;;;4.05;100.00;95626.00;5076450;28;20263;-57
2023/03/11 02:38:08;;;;;;;3.23;2.93;;;;;;;4.04;100.00;95623.53;5077554;28;20289;-58
2023/03/11 02:40:50;;;;;;;3.40;3.20;;;;;;;4.04;100.00;95623.53;5078979;28;20199;-58
2023/03/11 02:43:21;;;;;;;3.60;3.40;;;;;;;4.00;100.00;95621.16;5078642;28;20267;-58
2023/03/11 02:45:48;;;;;;;3.50;3.30;;;;;;;4.10;100.00;95633.50;5074831;28;20214;-58
2023/03/11 02:48:16;;;;;;;3.90;3.60;;;;;;;4.08;100.00;95649.28;5079447;28;20218;-59
2023/03/11 02:50:44;;;;;;;3.63;3.43;;;;;;;4.14;100.00;95661.06;5076476;28;20230;-59
2023/03/11 02:53:10;;;;;;;3.40;3.20;;;;;;;4.04;100.00;95665.41;5077452;28;20199;-58
2023/03/11 02:55:37;;;;;;;3.20;3.00;;;;;;;3.96;100.00;95647.72;5083900;28;20203;-58
2023/03/11 02:58:05;;;;;;;3.80;3.60;;;;;;;3.96;100.00;95645.09;5076813;28;20202;-59
2023/03/11 03:00:33;;;;;;;3.50;3.30;;;;;;;3.94;100.00;95632.13;5077458;28;20202;-58
2023/03/11 03:02:59;;;;;;;3.60;3.30;;;;;;;3.86;100.00;95634.56;5084138;28;20220;-58
2023/03/11 03:05:26;;;;;;;3.40;3.20;;;;;;;3.83;100.00;95629.59;5076002;28;20226;-58
2023/03/11 03:07:52;;;;;;;3.30;3.10;;;;;;;3.83;100.00;95640.03;5076507;28;20202;-58
2023/03/11 03:10:22;;;;;;;3.90;3.63;;;;;;;3.82;100.00;95630.56;5076815;28;20503;-59
2023/03/11 03:12:48;;;;;;;3.80;3.50;;;;;;;3.79;100.00;95622.94;5093563;28;20231;-63
2023/03/11 03:15:15;;;;;;;3.80;3.50;;;;;;;3.79;100.00;95627.38;5098796;28;20183;-58
2023/03/11 03:17:44;;;;;;;4.10;3.80;;;;;;;3.80;100.00;95635.06;5098939;28;20186;-58
2023/03/11 03:20:12;;;;;;;3.90;3.70;;;;;;;3.80;100.00;95645.53;5098572;28;20171;-58
2023/03/11 03:22:40;;;;;;;3.93;3.63;;;;;;;3.81;100.00;95652.44;5097762;28;20216;-58
2023/03/11 03:25:08;;;;;;;3.53;3.33;;;;;;;3.77;100.00;95645.78;5098881;28;20171;-57
2023/03/11 03:27:35;;;;;;;3.37;3.17;;;;;;;3.72;100.00;95642.69;5098834;28;20191;-58
2023/03/11 03:30:01;;;;;;;3.80;3.60;;;;;;;3.65;100.00;95636.31;5099014;28;20178;-58
2023/03/11 03:32:28;;;;;;;3.80;3.53;;;;;;;3.66;100.00;95638.00;5089418;28;20201;-59
2023/03/11 03:34:57;;;;;;;3.70;3.50;;;;;;;3.68;100.00;95623.03;5098993;28;20171;-60
2023/03/11 03:37:25;;;;;;;3.60;3.30;;;;;;;3.71;100.00;95619.31;5098845;28;20209;-58
2023/03/11 03:39:51;;;;;;;3.63;3.33;;;;;;;3.66;100.00;95622.31;5098786;28;20201;-58
2023/03/11 03:42:18;;;;;;;4.20;3.90;;;;;;;3.55;100.00;95622.34;5096934;28;20198;-59
2023/03/11 03:44:45;;;;;;;4.03;3.73;;;;;;;3.57;100.00;95623.06;5098676;28;20190;-59
2023/03/11 03:47:11;;;;;;;3.93;3.63;;;;;;;3.67;100.00;95628.38;5098691;28;20217;-58
2023/03/11 03:49:38;;;;;;;3.90;3.60;;;;;;;3.64;100.00;95639.06;5093952;28;20218;-57
2023/03/11 03:52:07;;;;;;;4.10;3.80;;;;;;;3.57;100.00;95630.91;5094416;28;20202;-58
2023/03/11 03:54:34;;;;;;;4.30;3.90;;;;;;;3.47;100.00;95637.84;5074949;28;20213;-58
2023/03/11 03:57:00;;;;;;;4.27;3.97;;;;;;;3.47;100.00;95632.63;5072667;28;20202;-58
2023/03/11 03:59:26;;;;;;;4.03;3.73;;;;;;;3.40;100.00;95634.06;5072801;28;20210;-59
2023/03/11 04:01:53;;;;;;;4.20;3.80;;;;;;;3.47;100.00;95663.97;5072180;28;20381;-59
2023/03/11 04:04:19;;;;;;;4.20;3.80;;;;;;;3.45;100.00;95656.25;5071473;28;20194;-57
2023/03/11 04:06:46;;;;;;;4.17;3.87;;;;;;;3.44;100.00;95653.75;5071562;28;20237;-59
2023/03/11 04:09:14;;;;;;;4.90;4.43;;;;;;;3.36;100.00;95657.00;5070980;28;20218;-58
2023/03/11 04:11:40;;;;;;;4.20;3.90;;;;;;;3.35;100.00;95642.28;5071782;28;20539;-58
2023/03/11 04:14:07;;;;;;;4.33;4.03;;;;;;;3.30;100.00;95652.25;5071662;28;20194;-58
2023/03/11 04:16:33;;;;;;;4.30;3.90;;;;;;;3.33;100.00;95648.59;5089669;28;20214;-59
2023/03/11 04:19:00;;;;;;;4.30;4.00;;;;;;;3.25;100.00;95648.34;5089155;28;20198;-59
2023/03/11 04:21:27;;;;;;;3.87;3.60;;;;;;;3.24;100.00;95646.69;5075245;28;20554;-58
2023/03/11 04:23:53;;;;;;;4.00;3.70;;;;;;;3.16;100.00;95644.69;5071103;28;20240;-58
2023/03/11 04:26:21;;;;;;;3.87;3.57;;;;;;;3.18;100.00;95652.41;5071332;28;20218;-59
2023/03/11 04:28:47;;;;;;;4.07;3.77;;;;;;;3.22;100.00;95648.59;5070954;28;20206;-58
2023/03/11 04:31:14;;;;;;;4.33;3.93;;;;;;;3.08;100.00;95641.03;5072766;28;20206;-58
2023/03/11 04:33:40;;;;;;;4.77;4.37;;;;;;;3.01;100.00;95643.31;5076267;28;20209;-58
2023/03/11 04:36:08;;;;;;;4.10;3.80;;;;;;;2.94;100.00;95645.56;5083467;28;20222;-58
2023/03/11 04:38:35;;;;;;;4.23;3.93;;;;;;;2.98;100.00;95652.19;5075059;28;20217;-58
2023/03/11 04:41:01;;;;;;;3.70;3.40;;;;;;;2.85;100.00;95656.75;5074826;28;20643;-58
2023/03/11 04:43:29;;;;;;;4.00;3.73;;;;;;;2.83;100.00;95649.97;5076502;28;20221;-58
2023/03/11 04:45:56;;;;;;;3.90;3.60;;;;;;;2.74;100.00;95643.69;5080384;28;20222;-58
2023/03/11 04:48:23;;;;;;;4.17;3.87;;;;;;;2.70;100.00;95663.16;5086132;28;20206;-58
2023/03/11 04:50:50;;;;;;;4.40;4.10;;;;;;;2.64;100.00;95658.41;5082892;28;20233;-59
2023/03/11 04:53:17;;;;;;;4.30;4.00;;;;;;;2.54;100.00;95659.25;5074441;28;20232;-58
2023/03/11 04:55:43;;;;;;;4.60;4.30;;;;;;;2.51;100.00;95668.16;5074813;28;20588;-58
2023/03/11 04:58:10;;;;;;;4.27;3.97;;;;;;;2.47;100.00;95667.56;5074951;28;20221;-59
2023/03/11 05:00:37;;;;;;;4.50;4.20;;;;;;;2.48;100.00;95673.56;5074318;28;20619;-58
2023/03/11 05:03:04;;;;;;;4.90;4.40;;;;;;;2.47;100.00;95674.53;5074773;28;20222;-57
2023/03/11 05:05:30;;;;;;;4.50;4.20;;;;;;;2.44;100.00;95675.59;5074424;28;20194;-58
2023/03/11 05:07:57;;;;;;;4.30;4.00;;;;;;;2.33;100.00;95679.97;5074620;28;20230;-58
2023/03/11 05:10:23;;;;;;;4.70;4.40;;;;;;;2.26;100.00;95684.84;5074381;28;20201;-58
2023/03/11 05:12:50;;;;;;;4.43;4.13;;;;;;;2.27;100.00;95694.31;5074090;28;20207;-58
2023/03/11 05:15:17;;;;;;;5.00;4.63;;;;;;;2.34;100.00;95692.06;5074374;28;20538;-58
2023/03/11 05:17:45;;;;;;;4.47;4.13;;;;;;;2.30;100.00;95680.22;5073512;28;20630;-59
2023/03/11 05:20:12;;;;;;;5.20;4.80;;;;;;;2.27;100.00;95690.88;5081223;28;20202;-58
2023/03/11 05:22:39;;;;;;;4.83;4.43;;;;;;;2.23;100.00;95682.44;5086708;28;20204;-58
2023/03/11 05:25:07;;;;;;;4.87;4.47;;;;;;;2.27;100.00;95688.25;5087114;28;20203;-58
2023/03/11 05:27:34;;;;;;;5.17;4.77;;;;;;;2.30;100.00;95690.66;5073971;28;20234;-58
2023/03/11 05:30:00;;;;;;;4.83;4.43;;;;;;;2.33;100.00;95695.63;5073770;28;20225;-58
2023/03/11 05:32:27;;;;;;;5.00;4.60;;;;;;;2.31;100.00;95697.50;5073637;28;20198;-58
2023/03/11 05:34:55;;;;;;;5.57;5.17;;;;;;;2.26;100.00;95700.50;5072623;28;20202;-59
2023/03/11 05:37:21;;;;;;;5.30;4.80;;;;;;;2.23;100.00;95705.09;5073199;28;20202;-58
2023/03/11 05:39:47;;;;;;;5.27;4.87;;;;;;;2.28;100.00;95698.59;5074239;28;20646;-58
2023/03/11 05:42:14;;;;;;;5.90;5.33;;;;;;;2.30;100.00;95701.09;5074183;28;20224;-58
2023/03/11 05:44:41;;;;;;;5.33;4.93;;;;;;;2.21;100.00;95702.59;5073692;28;20194;-58
2023/03/11 05:47:07;;;;;;;5.13;4.73;;;;;;;2.20;100.00;95710.53;5072735;28;20689;-58
2023/03/11 05:49:34;;;;;;;5.40;4.93;;;;;;;2.18;100.00;95707.22;5073124;28;20237;-59
2023/03/11 05:52:02;;;;;;;5.87;5.37;;;;;;;2.15;100.00;95702.22;5073139;28;20207;-58
2023/03/11 05:54:28;;;;;;;4.80;4.40;;;;;;;2.17;100.00;95701.16;5073057;28;20218;-58
2023/03/11 05:56:56;;;;;;;5.33;4.93;;;;;;;2.15;100.00;95694.41;5075568;28;20279;-58
2023/03/11 05:59:23;;;;;;;5.23;4.83;;;;;;;2.29;100.00;95684.59;5093690;28;20249;-58
2023/03/11 06:01:49;;;;;;;5.90;5.40;;;;;;;2.34;100.00;95685.06;5096122;28;20212;-59
2023/03/11 06:04:16;;;;;;;6.30;5.80;;;;;;;2.37;100.00;95686.63;5095637;28;20193;-58
2023/03/11 06:06:43;;;;;;;5.37;4.97;;;;;;;2.42;100.00;95684.50;5096532;28;20305;-58
2023/03/11 06:09:13;;;;;;;6.23;5.73;;;;;;;2.46;100.00;95691.13;5097334;28;20181;-60
2023/03/11 06:11:39;;;;;;;6.73;6.13;;;;;;;2.48;100.00;95692.66;5098262;28;20191;-59
2023/03/11 06:14:06;;;;;;;6.47;5.87;;;;;;;2.53;100.00;95687.13;5090472;28;20261;-57
2023/03/11 06:16:32;;;;;;;6.97;6.37;;;;;;;2.50;100.00;95687.34;5095655;28;20175;-58
2023/03/11 06:19:00;;;;;;;6.67;6.17;;;;;;;2.52;100.00;95698.50;5096424;28;20192;-58
2023/03/11 06:21:27;;;;;;;6.60;6.00;;;;;;;2.51;100.00;95695.03;5098005;28;20187;-59
2023/03/11 06:23:53;;;;;;;6.80;6.20;;;;;;;2.53;100.00;95689.72;5094256;28;20198;-58
2023/03/11 06:26:24;;;;;;;7.07;6.37;;;;;;;2.56;100.00;95701.69;5097725;28;20213;-58
2023/03/11 06:28:52;;;;;;;6.53;5.93;;;;;;;2.54;100.00;95704.44;5099279;28;20175;-57
2023/03/11 06:31:20;;;;;;;6.33;5.83;;;;;;;2.53;100.00;95718.44;5092117;28;20202;-59
2023/03/11 06:33:47;;;;;;;5.97;5.47;;;;;;;2.54;100.00;95717.50;5085432;28;20199;-58
2023/03/11 06:36:16;;;;;;;6.20;5.70;;;;;;;2.48;100.00;95726.59;5097226;28;20191;-58
2023/03/11 06:38:43;;;;;;;6.93;6.37;;;;;;;2.45;100.00;95734.66;5098374;28;20185;-58
2023/03/11 06:41:10;;;;;;;6.20;5.70;;;;;;;2.49;100.00;95748.31;5098106;28;20210;-58
2023/03/11 06:43:38;;;;;;;6.40;5.90;;;;;;;2.52;100.00;95755.91;5084024;28;20206;-58
2023/03/11 06:46:08;;;;;;;6.00;5.40;;;;;;;2.49;100.00;95754.34;5073188;28;20210;-58
2023/03/11 06:48:35;;;;;;;6.03;5.53;;;;;;;2.49;100.00;95758.75;5072600;28;20233;-58
2023/03/11 06:51:01;;;;;;;6.20;5.70;;;;;;;2.50;100.00;95750.81;5072205;28;20212;-57
2023/03/11 06:53:29;;;;;;;5.97;5.47;;;;;;;2.52;100.00;95755.91;5071663;28;20195;-58
2023/03/11 06:56:00;;;;;;;6.43;5.93;;;;;;;2.43;100.00;95754.00;5072843;28;20228;-59
2023/03/11 06:58:27;;;;;;;6.30;5.80;;;;;;;2.41;100.00;95761.09;5072038;28;20657;-59
2023/03/11 07:00:55;;;;;;;6.80;6.20;;;;;;;2.40;100.00;95757.69;5072380;28;20607;-58
2023/03/11 07:03:22;;;;;;;6.50;6.00;;;;;;;2.41;100.00;95764.53;5072103;28;20206;-58
2023/03/11 07:05:51;;;;;;;6.70;6.10;;;;;;;2.41;100.00;95771.53;5072657;28;20270;-59
2023/03/11 07:08:18;;;;;;;6.60;6.00;;;;;;;2.40;100.00;95769.88;5072283;28;20299;-58
2023/03/11 07:10:44;;;;;;;6.97;6.37;;;;;;;2.44;100.00;95773.94;5072215;28;20209;-58
2023/03/11 07:13:11;;;;;;;6.80;6.20;;;;;;;2.48;100.00;95785.78;5071935;28;20709;-58
2023/03/11 07:15:37;;;;;;;6.53;6.03;;;;;;;2.57;100.00;95787.72;5077042;28;20512;-59
2023/03/11 07:18:05;;;;;;;7.00;6.43;;;;;;;2.57;100.00;95789.47;5077874;28;20199;-58
2023/03/11 07:20:32;;;;;;;6.93;6.33;;;;;;;2.57;100.00;95792.94;5077655;28;20622;-58
2023/03/11 07:22:58;;;;;;;6.40;5.90;;;;;;;2.59;100.00;95780.59;5073439;28;20201;-58
2023/03/11 07:25:25;;;;;;;7.20;6.60;;;;;;;2.61;100.00;95791.75;5072080;28;20198;-57
2023/03/11 07:27:51;;;;;;;6.77;6.13;;;;;;;2.55;100.00;95794.81;5071686;28;20240;-58
2023/03/11 07:30:18;;;;;;;5.80;5.30;;;;;;;2.57;100.00;95787.72;5072151;28;20229;-58
2023/03/11 07:32:44;;;;;;;4.80;4.43;;;;;;;2.49;100.00;95790.06;5072021;28;20221;-59
2023/03/11 07:35:12;;;;;;;3.50;3.30;;;;;;;2.52;100.00;95795.03;5071486;28;20233;-58
2023/03/11 07:37:39;;;;;;;3.20;3.00;;;;;;;2.38;100.00;95796.06;5071428;28;20214;-59
2023/03/11 07:40:06;;;;;;;3.30;2.90;;;;;;;2.44;100.00;95794.81;5071339;28;20210;-57
2023/03/11 07:42:33;;;;;;;2.57;2.37;;;;;;;2.36;100.00;95803.19;5072423;28;20210;-58
2023/03/11 07:45:00;;;;;;;2.77;2.57;;;;;;;2.33;100.00;95794.75;5071717;28;20206;-58
2023/03/11 07:47:27;;;;;;;3.10;2.90;;;;;;;2.34;100.00;95785.97;5071621;28;20226;-59
2023/03/11 07:49:54;;;;;;;2.43;2.27;;;;;;;2.35;100.00;95783.25;5071595;28;20238;-58
2023/03/11 07:52:22;;;;;;;2.87;2.13;;;;;;;2.32;100.00;95796.53;5070385;28;20660;-58
2023/03/11 07:54:48;;;;;;;2.30;2.20;;;;;;;2.38;100.00;95803.06;5071912;28;20213;-58
2023/03/11 07:57:16;;;;;;;2.33;2.07;;;;;;;2.40;100.00;95799.41;5071212;28;20205;-59
2023/03/11 07:59:42;;;;;;;3.03;1.93;;;;;;;2.41;100.00;95795.00;5071549;28;20210;-59
2023/03/11 08:02:09;;;;;;;2.60;1.97;;;;;;;2.47;100.00;95803.22;5071054;28;20231;-59
2023/03/11 08:04:36;;;;;;;2.90;2.10;;;;;;;2.44;100.00;95798.22;5070543;28;20226;-59
2023/03/11 08:07:03;;;;;;;3.47;2.03;;;;;;;2.50;100.00;95799.56;5069724;28;20218;-58
2023/03/11 08:09:31;;;;;;;2.13;2.03;;;;;;;2.52;100.00;95805.47;5071137;28;20250;-58
2023/03/11 08:11:57;;;;;;;1.97;1.87;;;;;;;2.55;100.00;95813.06;5069739;28;20263;-59
2023/03/11 08:14:24;;;;;;;2.40;2.20;;;;;;;2.48;100.00;95806.66;5070995;28;20220;-59
2023/03/11 08:16:50;;;;;;;3.97;3.57;;;;;;;2.49;100.00;95819.59;5071550;28;20210;-59
2023/03/11 08:19:16;;;;;;;2.33;2.13;;;;;;;2.54;100.00;95824.47;5071143;28;20202;-57
2023/03/11 08:21:43;;;;;;;3.07;2.00;;;;;;;2.57;100.00;95823.41;5071105;28;20206;-59
2023/03/11 08:24:11;;;;;;;2.27;2.13;;;;;;;2.46;100.00;95832.03;5070884;28;20232;-59
2023/03/11 08:26:40;;;;;;;3.33;1.97;;;;;;;2.50;100.00;95829.09;5071338;28;20217;-58
2023/03/11 08:29:06;;;;;;;1.90;1.80;;;;;;;2.42;100.00;95846.25;5071289;28;20643;-58
2023/03/11 08:31:34;;;;;;;1.87;1.77;;;;;;;2.40;100.00;95848.16;5071323;28;21443;-59
2023/03/11 08:34:03;;;;;;;2.27;2.07;;;;;;;2.44;100.00;95860.03;5070767;28;20335;-59
2023/03/11 08:36:30;;;;;;;2.43;2.23;;;;;;;2.50;100.00;95855.19;5071346;28;20224;-58
2023/03/11 08:38:56;;;;;;;3.77;2.07;;;;;;;2.57;100.00;95866.00;5071704;28;20197;-58
2023/03/11 08:41:23;;;;;;;2.00;1.90;;;;;;;2.50;100.00;95857.78;5070741;28;20236;-58
2023/03/11 08:43:51;;;;;;;2.27;2.17;;;;;;;2.47;100.00;95860.63;5071050;28;20213;-58
2023/03/11 08:46:22;;;;;;;1.90;1.80;;;;;;;2.50;100.00;95860.41;5071023;28;20225;-58
2023/03/11 08:48:49;;;;;;;1.83;1.73;;;;;;;2.52;100.00;95870.72;5070234;28;20263;-58
2023/03/11 08:51:16;;;;;;;3.43;3.13;;;;;;;2.44;100.00;95866.06;5070555;28;20203;-58
2023/03/11 08:53:42;;;;;;;3.03;2.63;;;;;;;2.41;100.00;95866.28;5070788;28;20206;-59
2023/03/11 08:56:10;;;;;;;3.47;2.27;;;;;;;2.42;100.00;95862.75;5070058;28;20202;-58
2023/03/11 08:58:36;;;;;;;3.37;2.40;;;;;;;2.46;100.00;95869.41;5069429;28;20198;-59
2023/03/11 09:01:05;;;;;;;2.10;2.00;;;;;;;2.41;100.00;95863.66;5069997;28;21340;-59
2023/03/11 09:03:32;;;;;;;3.10;2.90;;;;;;;2.39;100.00;95864.75;5069488;28;20214;-59
2023/03/11 09:05:59;;;;;;;2.60;2.40;;;;;;;2.43;100.00;95867.03;5070734;28;20217;-59
2023/03/11 09:08:25;;;;;;;2.57;2.37;;;;;;;2.47;100.00;95860.63;5070569;28;20851;-59
2023/03/11 09:10:52;;;;;;;3.87;2.20;;;;;;;2.62;100.00;95868.28;5069912;28;20207;-58
2023/03/11 09:13:18;;;;;;;4.60;2.50;;;;;;;2.55;100.00;95860.03;5071231;28;20505;-58
2023/03/11 09:15:45;;;;;;;2.67;2.47;;;;;;;2.53;100.00;95869.78;5070238;28;20206;-59
2023/03/11 09:18:15;;;;;;;3.07;2.87;;;;;;;2.53;100.00;95880.22;5073766;28;20199;-58
2023/03/11 09:20:43;;;;;;;2.80;2.60;;;;;;;2.49;100.00;95878.78;5073900;28;20205;-58
2023/03/11 09:23:11;;;;;;;3.13;2.83;;;;;;;2.59;100.00;95887.59;5074338;28;20198;-58
2023/03/11 09:25:37;;;;;;;3.00;2.80;;;;;;;2.59;100.00;95882.38;5073637;28;20217;-58
2023/03/11 09:28:04;;;;;;;16.57;13.07;;;;;;;2.67;100.00;95898.28;5074041;28;20563;-59
2023/03/11 09:30:31;;;;;;;3.60;3.27;;;;;;;2.64;100.00;95887.25;5073955;28;20206;-58
2023/03/11 09:32:57;;;;;;;3.23;3.03;;;;;;;2.78;100.00;95894.88;5074244;28;20532;-58
2023/03/11 09:35:25;;;;;;;5.60;4.80;;;;;;;2.71;100.00;95904.97;5073231;28;20206;-58
2023/03/11 09:37:52;;;;;;;3.90;3.60;;;;;;;2.62;100.00;95908.25;5073804;28;20275;-60
2023/03/11 09:40:21;;;;;;;3.77;3.23;;;;;;;2.71;100.00;95915.41;5073840;28;20203;-58
2023/03/11 09:42:55;;;;;;;3.47;3.20;;;;;;;2.72;100.00;95911.84;5075322;28;20202;-57
2023/03/11 09:45:24;;;;;;;3.60;3.30;;;;;;;2.65;100.00;95913.25;5078629;28;20206;-58
2023/03/11 09:48:01;;;;;;;3.50;3.23;;;;;;;2.77;100.00;95909.72;5089147;28;20226;-58
2023/03/11 09:50:31;;;;;;;3.70;3.30;;;;;;;2.73;100.00;95916.09;5091123;28;20245;-58
2023/03/11 09:53:17;;;;;;;3.80;3.50;;;;;;;2.79;100.00;95923.50;5081686;28;20203;-57
2023/03/11 09:55:46;;;;;;;4.40;3.20;;;;;;;2.88;100.00;95922.81;5077668;28;20202;-58
2023/03/11 09:58:15;;;;;;;3.80;3.50;;;;;;;2.90;100.00;95920.09;5074798;28;20206;-59
2023/03/11 10:00:42;;;;;;;4.00;3.70;;;;;;;2.92;100.00;95919.03;5074669;28;20207;-59
2023/03/11 10:03:18;;;;;;;3.63;3.43;;;;;;;2.99;100.00;95917.63;5073439;28;20217;-58
2023/03/11 10:05:46;;;;;;;3.70;3.40;;;;;;;3.05;100.00;95929.38;5073540;28;20191;-58
2023/03/11 10:08:17;;;;;;;4.10;3.80;;;;;;;3.23;100.00;95922.78;5073251;28;20230;-58
2023/03/11 10:10:51;;;;;;;4.27;3.87;;;;;;;3.23;100.00;95924.56;5073252;28;20199;-59
2023/03/11 10:13:23;;;;;;;4.63;4.13;;;;;;;3.37;100.00;95921.72;5073187;28;20206;-57
2023/03/11 10:15:55;;;;;;;4.23;3.83;;;;;;;3.37;100.00;95926.94;5073158;28;20186;-58
2023/03/11 10:18:36;;;;;;;4.30;3.90;;;;;;;3.46;100.00;95928.88;5072838;28;20620;-59
2023/03/11 10:21:08;;;;;;;4.17;3.87;;;;;;;3.53;100.00;95924.00;5072323;28;20198;-59
2023/03/11 10:23:47;;;;;;;4.43;4.03;;;;;;;3.60;100.00;95920.81;5073849;28;20190;-58
2023/03/11 10:26:15;;;;;;;5.27;4.77;;;;;;;3.51;100.00;95921.50;5073241;28;20210;-58
2023/03/11 10:28:46;;;;;;;4.53;4.23;;;;;;;3.59;100.00;95919.13;5072824;28;20227;-59
2023/03/11 10:31:20;;;;;;;4.60;4.17;;;;;;;3.83;100.00;95921.63;5072958;28;20222;-59
2023/03/11 10:33:50;;;;;;;4.17;3.87;;;;;;;3.85;100.00;95920.56;5073219;28;20194;-58
2023/03/11 10:36:22;;;;;;;4.77;4.47;;;;;;;3.98;100.00;95925.66;5073451;28;20186;-59
2023/03/11 10:38:50;;;;;;;4.83;4.37;;;;;;;3.97;100.00;95926.59;5074708;28;20194;-59
2023/03/11 10:41:21;;;;;;;5.07;4.67;;;;;;;4.08;100.00;95920.53;5077583;28;20279;-59
2023/03/11 10:43:52;;;;;;;4.60;4.20;;;;;;;4.07;100.00;95924.97;5072732;28;20230;-58
2023/03/11 10:46:20;;;;;;;4.53;4.23;;;;;;;4.08;100.00;95931.00;5073386;28;20205;-59
2023/03/11 10:48:47;;;;;;;5.23;4.83;;;;;;;4.06;100.00;95925.91;5084219;28;20258;-58
2023/03/11 10:51:21;;;;;;;4.80;4.50;;;;;;;4.12;100.00;95919.34;5085379;28;20195;-58
2023/03/11 10:53:50;;;;;;;5.50;5.00;;;;;;;3.96;100.00;95915.34;5080815;28;20199;-58
2023/03/11 10:56:28;;;;;;;5.57;5.00;;;;;;;4.10;100.00;95918.63;5072489;28;20264;-58
2023/03/11 10:58:56;;;;;;;5.97;5.47;;;;;;;4.20;100.00;95924.81;5072308;28;20198;-58
2023/03/11 11:01:23;;;;;;;4.93;4.53;;;;;;;4.26;100.00;95934.78;5072190;28;20199;-59
2023/03/11 11:03:54;;;;;;;4.63;4.33;;;;;;;4.41;100.00;95923.94;5072359;28;20195;-58
2023/03/11 11:06:24;;;;;;;5.37;4.97;;;;;;;4.36;100.00;95930.47;5072137;28;20538;-58
2023/03/11 11:09:05;;;;;;;7.70;7.00;;;;;;;4.42;100.00;95930.00;5072741;28;20235;-59
2023/03/11 11:11:32;;;;;;;10.53;9.47;;;;;;;4.57;100.00;95920.09;5071349;28;20209;-58
2023/03/11 11:14:00;;;;;;;6.20;5.80;;;;;;;4.53;100.00;95911.66;5072273;28;20203;-59
2023/03/11 11:16:27;;;;;;;5.60;5.20;;;;;;;4.49;100.00;95921.53;5071755;28;20289;-59
2023/03/11 11:18:59;;;;;;;6.43;5.17;;;;;;;4.50;100.00;95917.09;5071816;28;20216;-58
2023/03/11 11:21:32;;;;;;;6.20;5.67;;;;;;;4.57;100.00;95913.03;5071210;28;20190;-59
2023/03/11 11:24:12;;;;;;;5.53;5.13;;;;;;;4.72;100.00;95917.03;5071948;28;20513;-58
2023/03/11 11:26:39;;;;;;;5.47;5.07;;;;;;;4.92;100.00;95912.78;5072255;28;20540;-58
2023/03/11 11:29:08;;;;;;;5.83;5.40;;;;;;;5.02;100.00;95916.31;5071404;28;20229;-58
2023/03/11 11:31:34;;;;;;;6.17;5.67;;;;;;;5.00;100.00;95913.81;5072213;28;20298;-59
2023/03/11 11:34:01;;;;;;;6.17;5.67;;;;;;;5.06;100.00;95912.50;5072175;28;20210;-59
2023/03/11 11:36:29;;;;;;;6.40;5.90;;;;;;;5.07;100.00;95916.75;5071632;28;20443;-59